CheckWX is a tool to help pilots better visualize weather data.  It is not intended as a substitute for an official pre-flight weather briefing.

07:49:26 UTC

LQBK METAR
Banja Luka International Airport
Banja Luka, Bosnia and Herzegovina
Current

19 mins ago

LQBK 150730Z 12006KT 060V170 6000 OVC008 10/09 Q1011 NOSIG
Observed
Nov-15 @ 07:30 UTC
Wind
  • 120° at 6 KTS
Visibility
6,000 meters
Flight Rules
IFR
Cloud Levels
  • Overcast at 800' AGL
Temperature
10°C / 50°F
Dewpoint
C / 48°F
Humidity
94%
Altimeter
29.85" Hg
Pressure
1010.92 hPa
Previous

49 mins ago

LQBK 150700Z 11004KT 050V160 6000 OVC010 09/08 Q1011 NOSIG
Observed
Nov-15 @ 07:00 UTC
Wind
  • 110° at 4 KTS
Visibility
6,000 meters
Flight Rules
MVFR
Cloud Levels
  • Overcast at 1,000' AGL
Temperature
C / 48°F
Dewpoint
C / 46°F
Humidity
94%
Altimeter
29.85" Hg
Pressure
1010.92 hPa
Previous

1 hour ago

LQBK 150630Z 15003KT 110V180 9999 OVC010 09/08 Q1011 NOSIG
Observed
Nov-15 @ 06:30 UTC
Wind
  • 150° at 3 KTS
Visibility
10,000+ meters
Flight Rules
MVFR
Cloud Levels
  • Overcast at 1,000' AGL
Temperature
C / 48°F
Dewpoint
C / 46°F
Humidity
94%
Altimeter
29.85" Hg
Pressure
1010.92 hPa